This is the latest recevied weather packets stored in our database for station/object EB2EMZ-14. If no packets are shown the sender has not sent any weather packets the latest 10 day(s).
| Time | Temp. | Humidity | Pressure | Rain* | Wind** | Luminosity | Snow |
|---|---|---|---|---|---|---|---|
| 1777982410 | 11.11° C | 72% | 1011.9 hPa | 0.51 mm | - | 0 W/m² | - |
| 1777982110 | 11.11° C | 71% | 1011.8 hPa | 0.51 mm | - | 0 W/m² | - |
| 1777981811 | 11.67° C | 69% | 1011.8 hPa | 0.51 mm | - | 0 W/m² | - |
| 1777981509 | 13.33° C | 66% | 1011.8 hPa | 0.51 mm | - | 0 W/m² | - |
| 1777981210 | 15° C | 64% | 1011.6 hPa | 0.51 mm | - | 0 W/m² | - |
| 1777980909 | 16.67° C | 62% | 1011.7 hPa | 0 mm | - | 0 W/m² | - |
| 1777980610 | 17.22° C | 64% | 1011.9 hPa | 0 mm | - | 0 W/m² | - |
| 1777980309 | 16.11° C | 66% | 1011.4 hPa | 0 mm | - | 0 W/m² | - |
| 1777980009 | 15.56° C | 66% | 1011.4 hPa | 0 mm | - | 0 W/m² | - |
| 1777979708 | 15° C | 69% | 1011.5 hPa | 0 mm | - | 0 W/m² | - |
| 1777979409 | 14.44° C | 68% | 1011.7 hPa | 0 mm | - | 0 W/m² | - |
| 1777979109 | 14.44° C | 67% | 1011.6 hPa | 0 mm | - | 0 W/m² | - |
| 1777978808 | 15° C | 65% | 1011.7 hPa | 0 mm | - | 0 W/m² | - |
| 1777978509 | 16.11° C | 63% | 1011.8 hPa | 0 mm | - | 0 W/m² | - |
| 1777978208 | 16.67° C | 63% | 1011.8 hPa | 0 mm | - | 0 W/m² | - |
| 1777977907 | 17.22° C | 63% | 1011.8 hPa | 0 mm | - | 0 W/m² | - |
| 1777977609 | 17.22° C | 64% | 1011.8 hPa | 0 mm | - | 0 W/m² | - |
| 1777977311 | 16.67° C | 65% | 1011.7 hPa | 0 mm | - | 0 W/m² | - |
| 1777977009 | 16.11° C | 68% | 1011.7 hPa | 0 mm | - | 0 W/m² | - |
| 1777976708 | 15.56° C | 67% | 1011.9 hPa | 0 mm | - | 0 W/m² | - |
| 1777976409 | 15° C | 66% | 1011.9 hPa | 0 mm | - | 0 W/m² | - |
| 1777976108 | 15° C | 66% | 1012.1 hPa | 0 mm | - | 0 W/m² | - |
| 1777975808 | 15° C | 66% | 1012 hPa | 0 mm | - | 0 W/m² | - |
| 1777975508 | 15° C | 65% | 1012.1 hPa | 0 mm | - | 0 W/m² | - |
| 1777975214 | 15.56° C | 66% | 1012 hPa | 0 mm | - | 0 W/m² | - |
* Rain latest hour (hover to see other rain measurements)
** Current wind speed in m/s (hover to see current wind gust speed)